Holbrook, New York
Current Conditions -  °F | °C
As of 9:56 PM on Wednesday 26 Nov 2014 (Local Time) from KISP Reporting Station
Light Snow Light Snow  
Wind Chill: 27°   Ceiling: 900
Heat Index: 37°   Visibility: 4mi
Dew Point: 34°   Wind: 17mph
Humidity: 89%   Direction: 350°N
Pressure: 29.71"   Gusts: 28mph
Location:  40.79°N, 73.07°W
Report Text: KISP 270256Z 35015G24KT 4SM -RASN BR BKN009 OVC018 03/01 A2971 RMK AO2 SLP061 P0003 60008 T00280011 51008
Loading
Personal Weather Stations






























Interactive Weather Map New forecast layout! Learn more

10-Day Weather Forecast

Advertisements
Track Severe Weather on mobile